Time;durP1;ratioP1;P1;durP2;ratioP2;P2;SDS_P1;SDS_P2;PMS_P1;PMS_P2;Temp;Humidity;BMP_temperature;BMP_pressure;BME280_temperature;BME280_humidity;BME280_pressure;Samples;Min_cycle;Max_cycle;Signal;HPM_P1;HPM_P2
2022/06/25 00:26:56;;;;;;;2.10;1.50;;;;;;;19.09;70.58;98463.13;6284076;22;40643;-76
2022/06/25 00:29:23;;;;;;;1.60;1.50;;;;;;;19.06;70.39;98471.50;6283561;22;41755;-76
2022/06/25 00:31:51;;;;;;;1.70;1.60;;;;;;;19.06;70.38;98475.00;6311104;22;42460;-77
2022/06/25 00:34:19;;;;;;;1.60;1.50;;;;;;;19.06;71.04;98483.06;6258058;22;38973;-76
2022/06/25 00:36:47;;;;;;;2.10;1.40;;;;;;;19.07;70.78;98494.66;6283575;22;42386;-77
2022/06/25 00:39:15;;;;;;;1.70;1.60;;;;;;;19.06;70.31;98490.28;6283437;22;41943;-77
2022/06/25 00:41:43;;;;;;;1.70;1.60;;;;;;;19.02;70.29;98493.31;6283014;22;42350;-76
2022/06/25 00:44:13;;;;;;;1.80;1.70;;;;;;;19.02;70.00;98498.66;6233024;22;40202;-76
2022/06/25 00:46:41;;;;;;;1.53;1.43;;;;;;;19.00;70.08;98495.28;6283607;22;41858;-76
2022/06/25 00:49:08;;;;;;;1.60;1.50;;;;;;;18.99;69.76;98498.97;6283782;22;42607;-76
2022/06/25 00:51:41;;;;;;;1.60;1.50;;;;;;;18.97;70.37;98498.28;6257828;22;42297;-77
2022/06/25 01:01:09;;;;;;;1.60;1.50;;;;;;;18.88;70.48;98501.91;6283044;22;42975;-77
2022/06/25 01:03:38;;;;;;;1.47;1.30;;;;;;;18.86;70.55;98501.22;6310525;22;43212;-77
2022/06/25 01:06:06;;;;;;;1.50;1.40;;;;;;;18.83;70.91;98498.00;6257802;22;40266;-76
2022/06/25 01:08:36;;;;;;;1.27;1.27;;;;;;;18.80;70.75;98496.47;6257388;22;40817;-76
2022/06/25 01:11:04;;;;;;;1.63;1.53;;;;;;;18.80;71.09;98503.69;6310603;22;42788;-76
2022/06/25 01:13:32;;;;;;;1.57;1.47;;;;;;;18.77;70.46;98499.50;6283584;22;42940;-76
2022/06/25 01:16:01;;;;;;;1.50;1.40;;;;;;;18.50;70.89;98464.69;6310607;22;40094;-77
2022/06/25 01:18:30;;;;;;;1.47;1.37;;;;;;;18.62;70.71;98491.16;6257722;22;41861;-76
2022/06/25 01:21:00;;;;;;;2.33;1.60;;;;;;;18.71;71.29;98510.81;6283312;22;41832;-76
2022/06/25 01:23:31;;;;;;;3.03;1.60;;;;;;;18.69;71.02;98515.50;6208079;22;44030;-77
2022/06/25 01:25:59;;;;;;;1.70;1.60;;;;;;;18.67;71.28;98514.00;6283814;22;40946;-76
2022/06/25 01:28:27;;;;;;;1.67;1.57;;;;;;;18.62;71.34;98517.97;6283515;22;42010;-75
2022/06/25 01:30:55;;;;;;;1.67;1.57;;;;;;;18.61;71.52;98518.13;6232637;22;42899;-76
2022/06/25 01:33:24;;;;;;;2.60;2.00;;;;;;;18.59;72.17;98520.97;6232472;22;41350;-76
2022/06/25 01:35:52;;;;;;;2.57;2.37;;;;;;;18.54;72.05;98525.09;6310719;22;41988;-77
2022/06/25 01:38:20;;;;;;;1.90;1.80;;;;;;;18.55;72.21;98524.06;6257976;22;40816;-76
2022/06/25 01:40:49;;;;;;;2.83;2.20;;;;;;;18.49;72.05;98527.38;6257421;22;43177;-76
2022/06/25 01:43:19;;;;;;;2.57;2.37;;;;;;;18.45;72.38;98526.00;6283687;22;42516;-76
2022/06/25 01:45:48;;;;;;;2.00;1.90;;;;;;;18.47;71.94;98535.56;6257435;22;38954;-76
2022/06/25 01:48:21;;;;;;;2.83;2.43;;;;;;;18.25;72.85;98504.72;6248479;22;40854;-77
2022/06/25 01:50:50;;;;;;;2.57;2.37;;;;;;;18.41;72.60;98540.72;6240368;22;42777;-76
2022/06/25 01:53:17;;;;;;;2.00;1.90;;;;;;;18.39;72.65;98537.34;6225859;22;42407;-76
2022/06/25 01:55:45;;;;;;;2.43;2.27;;;;;;;18.35;73.23;98544.00;6226223;22;38999;-76
2022/06/25 01:58:15;;;;;;;3.03;2.50;;;;;;;18.33;73.00;98537.94;6225948;22;42600;-76
2022/06/25 02:00:44;;;;;;;3.07;2.40;;;;;;;18.33;73.16;98544.13;6225262;22;41598;-76
2022/06/25 02:03:14;;;;;;;2.67;2.47;;;;;;;18.31;73.77;98541.59;6250719;22;41965;-76
2022/06/25 02:06:00;;;;;;;2.90;2.67;;;;;;;18.30;73.58;98539.91;6251028;22;40106;-76
2022/06/25 02:08:31;;;;;;;2.50;2.40;;;;;;;18.30;74.16;98541.75;6225923;22;41946;-76
2022/06/25 02:11:01;;;;;;;2.70;2.50;;;;;;;18.09;74.30;98515.25;6225729;22;41426;-76
2022/06/25 02:13:30;;;;;;;2.00;1.90;;;;;;;18.29;74.26;98551.66;6250938;22;43001;-75
2022/06/25 02:15:58;;;;;;;2.10;2.00;;;;;;;18.29;74.10;98551.66;6250783;22;41069;-77
2022/06/25 02:18:26;;;;;;;2.57;2.37;;;;;;;18.30;74.47;98553.31;6203789;22;40918;-76
2022/06/25 02:20:54;;;;;;;3.13;2.87;;;;;;;18.27;75.15;98558.16;6282853;22;41826;-76
2022/06/25 02:23:25;;;;;;;3.17;2.40;;;;;;;18.28;74.65;98558.03;6257286;22;41422;-77
2022/06/25 02:25:53;;;;;;;2.73;2.53;;;;;;;18.28;74.57;98563.38;6256293;22;40083;-76
2022/06/25 02:28:21;;;;;;;2.73;2.53;;;;;;;18.29;74.84;98569.59;6283367;22;42181;-77
2022/06/25 02:30:52;;;;;;;2.67;2.47;;;;;;;18.28;74.61;98568.75;6283140;22;41951;-77
2022/06/25 02:33:20;;;;;;;2.10;2.00;;;;;;;18.22;74.19;98561.28;6257646;22;41681;-76
2022/06/25 02:35:48;;;;;;;2.10;2.00;;;;;;;18.25;74.28;98569.03;6282797;22;40067;-76
2022/06/25 02:38:18;;;;;;;3.90;2.70;;;;;;;18.25;74.41;98568.19;6282973;22;42742;-76
2022/06/25 02:40:51;;;;;;;4.40;2.37;;;;;;;18.18;73.94;98567.09;6283100;22;42672;-76
2022/06/25 02:43:20;;;;;;;2.80;2.17;;;;;;;18.11;73.77;98553.47;6283508;22;42323;-77
2022/06/25 02:45:58;;;;;;;2.13;2.03;;;;;;;18.20;74.00;98571.31;6257636;22;40274;-76
2022/06/25 02:48:26;;;;;;;2.53;2.33;;;;;;;18.00;73.62;98537.59;6257016;22;43306;-76
2022/06/25 02:50:54;;;;;;;2.70;2.40;;;;;;;18.15;73.84;98567.41;6257398;22;43035;-76
2022/06/25 02:53:22;;;;;;;2.13;2.03;;;;;;;18.03;73.56;98548.03;6283069;22;41544;-76
2022/06/25 03:01:25;;;;;;;2.30;2.20;;;;;;;18.07;73.20;98565.47;6282580;22;43747;-77
2022/06/25 03:03:54;;;;;;;2.40;2.20;;;;;;;18.04;73.07;98570.31;6282883;22;42377;-76
2022/06/25 03:06:22;;;;;;;1.80;1.70;;;;;;;18.01;73.92;98571.44;6257212;22;39973;-76
2022/06/25 03:08:50;;;;;;;2.03;1.93;;;;;;;17.99;73.94;98583.31;6257586;22;40686;-76
2022/06/25 03:11:18;;;;;;;1.80;1.70;;;;;;;17.95;73.95;98580.06;6282347;22;41895;-76
2022/06/25 03:13:48;;;;;;;1.70;1.60;;;;;;;17.93;73.63;98579.38;6257178;22;42384;-76
2022/06/25 03:16:16;;;;;;;2.00;1.80;;;;;;;17.89;73.81;98584.19;6283033;22;40724;-76
2022/06/25 03:18:45;;;;;;;1.80;1.70;;;;;;;17.88;74.11;98584.34;6257452;22;42211;-76
2022/06/25 03:21:46;;;;;;;1.37;1.30;;;;;;;17.86;73.56;98594.34;6257974;22;42469;-76
2022/06/25 03:24:16;;;;;;;1.90;1.80;;;;;;;17.84;73.71;98599.84;6283481;22;42269;-76
2022/06/25 03:26:44;;;;;;;1.50;1.40;;;;;;;17.84;73.91;98590.97;6281868;22;40811;-76
2022/06/25 03:29:12;;;;;;;1.80;1.40;;;;;;;17.83;73.32;98594.66;6257489;22;41752;-77
2022/06/25 03:31:40;;;;;;;1.43;1.33;;;;;;;17.84;73.46;98596.34;6257085;22;43139;-76
2022/06/25 03:34:45;;;;;;;2.20;1.27;;;;;;;17.83;73.20;98594.66;6282302;22;42358;-77
2022/06/25 03:37:13;;;;;;;1.33;1.27;;;;;;;17.83;73.02;98594.66;6256754;22;39935;-76
2022/06/25 03:39:41;;;;;;;1.40;1.30;;;;;;;17.84;73.03;98597.19;6256409;22;41728;-76
2022/06/25 03:42:10;;;;;;;1.60;1.50;;;;;;;17.84;72.86;98596.34;6257387;22;42608;-76
2022/06/25 03:44:45;;;;;;;1.60;1.30;;;;;;;17.83;72.87;98605.38;6282618;22;42382;-76
2022/06/25 03:47:29;;;;;;;1.37;1.27;;;;;;;17.83;73.01;98605.38;6282866;22;40009;-77
2022/06/25 03:49:59;;;;;;;1.70;1.60;;;;;;;17.84;74.20;98607.06;6282049;22;41867;-76
2022/06/25 03:52:27;;;;;;;1.70;1.60;;;;;;;17.84;74.25;98609.72;6232199;22;41572;-76
2022/06/25 03:54:55;;;;;;;4.17;2.23;;;;;;;17.85;74.14;98620.31;6256693;22;41044;-76
2022/06/25 03:57:24;;;;;;;1.83;1.73;;;;;;;17.89;74.26;98618.19;6256711;22;39227;-77
2022/06/25 04:00:06;;;;;;;2.27;1.53;;;;;;;17.80;73.77;98601.13;6256346;22;43486;-76
2022/06/25 04:02:40;;;;;;;1.63;1.53;;;;;;;17.91;73.49;98625.09;6309881;22;42864;-77
2022/06/25 04:05:41;;;;;;;1.40;1.30;;;;;;;17.90;73.45;98618.03;6263314;22;42332;-76
2022/06/25 04:08:18;;;;;;;1.37;1.27;;;;;;;17.92;73.26;98615.22;6256958;22;41038;-77
2022/06/25 04:10:47;;;;;;;1.60;1.50;;;;;;;17.92;73.12;98617.91;6256491;22;42168;-76
2022/06/25 04:13:15;;;;;;;1.33;1.23;;;;;;;17.92;73.35;98616.06;6282192;22;41815;-76
2022/06/25 04:15:43;;;;;;;1.67;1.57;;;;;;;17.94;73.29;98623.91;6281865;22;43287;-77
2022/06/25 04:18:13;;;;;;;1.50;1.40;;;;;;;17.94;73.41;98619.41;6256733;22;39995;-77
2022/06/25 04:20:42;;;;;;;1.90;1.80;;;;;;;17.98;73.35;98625.31;6256636;22;42823;-76
2022/06/25 04:23:10;;;;;;;4.43;2.10;;;;;;;18.04;73.08;98627.44;6282150;22;42909;-76
2022/06/25 04:25:39;;;;;;;2.10;2.00;;;;;;;18.10;72.91;98624.13;6256430;22;41212;-76
2022/06/25 04:31:04;;;;;;;1.30;1.20;;;;;;;18.23;72.49;98630.00;6259540;22;41848;-76
2022/06/25 04:33:32;;;;;;;3.73;1.70;;;;;;;18.31;72.63;98637.28;6256019;22;41753;-76
2022/06/25 04:36:07;;;;;;;1.50;1.40;;;;;;;18.44;72.02;98636.91;6256152;22;42336;-76
2022/06/25 04:38:50;;;;;;;1.90;1.80;;;;;;;18.57;71.95;98632.88;6282622;22;40113;-76
2022/06/25 04:41:19;;;;;;;1.70;1.60;;;;;;;18.65;72.30;98632.16;6283150;22;42294;-76
2022/06/25 04:43:50;;;;;;;2.03;1.80;;;;;;;18.79;72.44;98636.16;6283660;22;43771;-76
2022/06/25 04:46:23;;;;;;;2.10;2.00;;;;;;;18.90;72.23;98647.50;6283357;22;43093;-76
2022/06/25 04:48:52;;;;;;;3.60;1.73;;;;;;;19.03;71.87;98644.44;6258062;22;38830;-76
2022/06/25 04:51:44;;;;;;;1.93;1.70;;;;;;;19.19;71.81;98646.41;6279911;22;40732;-76
2022/06/25 04:54:14;;;;;;;2.43;2.33;;;;;;;19.27;71.91;98647.34;6257891;22;42033;-76
2022/06/25 04:56:54;;;;;;;2.70;2.50;;;;;;;19.27;71.92;98630.38;6257996;22;41345;-76
2022/06/25 04:59:22;;;;;;;2.47;2.37;;;;;;;19.42;71.59;98644.91;6283089;22;41701;-77
2022/06/25 05:02:11;;;;;;;1.90;1.80;;;;;;;19.62;71.09;98656.34;6283614;22;41802;-76
2022/06/25 05:04:45;;;;;;;2.13;1.97;;;;;;;19.64;70.81;98639.06;6283639;22;43547;-76
2022/06/25 05:07:15;;;;;;;1.97;1.87;;;;;;;19.71;70.68;98629.34;6283487;22;42302;-77
2022/06/25 05:09:43;;;;;;;1.73;1.63;;;;;;;19.93;70.09;98643.25;6257521;22;40158;-77
2022/06/25 05:13:11;;;;;;;2.03;1.93;;;;;;;20.11;69.77;98646.69;6283263;22;41890;-76
2022/06/25 05:15:00;;;;;;;1.93;1.83;;;;;;;20.29;69.37;98660.88;6257740;22;41443;-76
2022/06/25 05:17:29;;;;;;;2.10;1.87;;;;;;;20.49;68.93;98649.91;6283319;22;42575;-76
2022/06/25 05:19:57;;;;;;;2.30;2.10;;;;;;;20.60;68.64;98649.59;6257403;22;41168;-76
2022/06/25 05:22:27;;;;;;;2.47;2.33;;;;;;;20.81;68.32;98655.34;6257563;22;42085;-76
2022/06/25 05:24:55;;;;;;;2.83;2.27;;;;;;;20.96;67.54;98647.47;6282819;22;43749;-76
2022/06/25 05:27:23;;;;;;;2.37;2.17;;;;;;;21.14;67.10;98654.38;6283307;22;42397;-76
2022/06/25 05:29:51;;;;;;;2.57;2.37;;;;;;;21.29;66.73;98659.97;6283022;22;39969;-76
2022/06/25 05:32:21;;;;;;;2.00;1.90;;;;;;;21.41;66.76;98664.00;6283160;22;42528;-76
2022/06/25 05:34:49;;;;;;;1.87;1.77;;;;;;;21.55;66.18;98665.19;6282712;22;42639;-77
2022/06/25 05:37:18;;;;;;;2.40;2.20;;;;;;;21.68;65.83;98675.44;6257717;22;41327;-77
2022/06/25 05:39:47;;;;;;;1.97;1.70;;;;;;;21.95;64.98;98676.91;6282924;22;41057;-77
2022/06/25 05:42:15;;;;;;;1.80;1.70;;;;;;;22.15;64.95;98667.44;6282368;22;42383;-77
2022/06/25 05:44:43;;;;;;;2.00;1.90;;;;;;;22.14;64.49;98652.25;6282965;22;42910;-76
2022/06/25 05:47:11;;;;;;;1.80;1.70;;;;;;;22.49;64.08;98676.09;6283071;22;42347;-77
2022/06/25 05:49:39;;;;;;;1.93;1.70;;;;;;;22.65;63.40;98685.09;6282682;22;39978;-76
2022/06/25 05:52:07;;;;;;;2.00;1.90;;;;;;;22.61;62.45;98673.00;6283398;22;40537;-77
2022/06/25 05:54:35;;;;;;;1.60;1.50;;;;;;;22.70;62.95;98680.88;6232259;22;42359;-76
2022/06/25 05:57:07;;;;;;;1.50;1.40;;;;;;;22.80;62.43;98686.06;6257411;22;41574;-77
2022/06/25 05:59:35;;;;;;;1.63;1.40;;;;;;;22.95;62.43;98692.41;6283091;22;39711;-76
2022/06/25 06:02:03;;;;;;;1.80;1.40;;;;;;;23.11;61.56;98692.31;6283658;22;42844;-77
2022/06/25 06:04:31;;;;;;;1.53;1.43;;;;;;;23.17;61.23;98696.97;6257789;22;43027;-77
2022/06/25 06:07:00;;;;;;;1.20;1.20;;;;;;;23.18;61.10;98703.22;6310614;22;42367;-77
2022/06/25 06:09:28;;;;;;;1.87;1.77;;;;;;;23.19;61.34;98700.34;6310154;22;39716;-77
2022/06/25 06:11:57;;;;;;;1.97;1.40;;;;;;;23.23;61.22;98696.28;6257660;22;41182;-77
2022/06/25 06:14:26;;;;;;;1.50;1.40;;;;;;;23.24;61.32;98703.31;6257302;22;41710;-77
2022/06/25 06:16:56;;;;;;;1.53;1.23;;;;;;;23.16;60.60;98695.28;6283339;22;41166;-76
2022/06/25 06:19:24;;;;;;;1.40;1.30;;;;;;;23.16;60.90;98706.09;6310071;22;40070;-77
2022/06/25 06:21:52;;;;;;;1.47;1.37;;;;;;;23.23;60.52;98707.06;6310711;22;41903;-77
2022/06/25 06:24:19;;;;;;;1.70;1.60;;;;;;;23.29;60.53;98700.94;6283036;22;42911;-77
2022/06/25 06:26:47;;;;;;;1.23;1.23;;;;;;;23.39;59.70;98705.25;6257449;22;43754;-77
2022/06/25 06:29:17;;;;;;;2.70;1.50;;;;;;;23.50;59.60;98703.00;6257582;22;38622;-77
2022/06/25 06:31:47;;;;;;;1.47;1.30;;;;;;;23.57;59.09;98703.13;6283301;22;42510;-77
2022/06/25 06:34:15;;;;;;;1.10;1.10;;;;;;;23.59;58.68;98698.38;6282977;22;42415;-77
2022/06/25 06:36:43;;;;;;;2.43;1.43;;;;;;;23.80;58.69;98714.75;6282401;22;43846;-77
2022/06/25 06:39:11;;;;;;;2.00;1.50;;;;;;;23.96;57.86;98714.59;6310425;22;41005;-77
2022/06/25 06:41:39;;;;;;;1.33;1.23;;;;;;;24.29;58.01;98719.66;6232097;22;41544;-77
2022/06/25 06:44:07;;;;;;;1.80;1.37;;;;;;;24.62;56.62;98729.09;6283135;22;42759;-77
2022/06/25 06:46:35;;;;;;;1.50;1.40;;;;;;;24.91;55.87;98724.66;6257393;22;41720;-77
2022/06/25 06:49:04;;;;;;;1.47;1.37;;;;;;;24.86;55.65;98718.94;6310383;22;40401;-77
2022/06/25 06:51:32;;;;;;;1.40;1.30;;;;;;;24.80;55.70;98725.16;6282842;22;42347;-77
2022/06/25 06:54:32;;;;;;;1.37;1.20;;;;;;;24.64;56.01;98729.72;6274464;22;42989;-77
2022/06/25 06:57:00;;;;;;;1.50;1.40;;;;;;;24.48;56.08;98724.50;6308344;22;42295;-77
2022/06/25 06:59:28;;;;;;;1.50;1.40;;;;;;;24.52;55.76;98720.41;6257535;22;39043;-77
2022/06/25 07:01:56;;;;;;;1.10;1.00;;;;;;;24.86;55.92;98716.25;6282263;22;42510;-78
2022/06/25 07:04:25;;;;;;;1.57;1.47;;;;;;;25.33;54.38;98730.19;6257390;22;42512;-77
2022/06/25 07:06:53;;;;;;;1.43;1.33;;;;;;;26.05;52.71;98730.00;6282559;22;42215;-77
2022/06/25 07:21:36;;;;;;;1.30;1.20;;;;;;;26.77;50.63;98740.50;6211905;23;43036;-78
2022/06/25 07:24:06;;;;;;;1.50;1.40;;;;;;;27.01;50.04;98736.44;6190310;23;38863;-77
2022/06/25 07:26:35;;;;;;;1.30;1.20;;;;;;;26.76;49.79;98727.94;6190231;23;40998;-77
2022/06/25 07:29:03;;;;;;;1.67;1.30;;;;;;;26.89;49.98;98735.31;6164725;23;41827;-77
2022/06/25 07:31:31;;;;;;;4.47;1.43;;;;;;;27.21;48.31;98744.63;6189425;23;42706;-78
2022/06/25 07:33:59;;;;;;;2.40;1.20;;;;;;;27.87;46.47;98761.94;6190421;23;40981;-77
2022/06/25 07:36:26;;;;;;;1.50;1.03;;;;;;;28.88;44.82;98757.03;6190567;23;41860;-78
2022/06/25 07:38:54;;;;;;;1.67;1.20;;;;;;;29.73;43.81;98759.53;6190027;23;43227;-78
2022/06/25 07:41:24;;;;;;;1.30;1.10;;;;;;;30.41;42.26;98765.91;6189847;23;42406;-78
2022/06/25 07:43:52;;;;;;;1.67;1.00;;;;;;;31.31;41.10;98768.91;6237803;22;39887;-78
2022/06/25 07:46:20;;;;;;;1.23;1.23;;;;;;;32.12;39.35;98776.56;6282702;22;41516;-77
2022/06/25 07:48:48;;;;;;;1.20;1.10;;;;;;;32.48;38.71;98775.53;6256855;22;41784;-78
2022/06/25 07:54:01;;;;;;;1.07;1.00;;;;;;;33.18;36.97;98779.00;6310208;22;40574;-78
2022/06/25 07:56:30;;;;;;;1.40;1.30;;;;;;;33.49;35.77;98788.72;6309743;22;41676;-77
2022/06/25 07:58:58;;;;;;;1.40;1.10;;;;;;;33.56;35.22;98793.22;6282320;22;41815;-78
2022/06/25 08:01:26;;;;;;;3.63;1.50;;;;;;;34.29;34.32;98793.19;6282263;22;42597;-78
2022/06/25 08:03:54;;;;;;;2.37;1.27;;;;;;;34.97;33.12;98794.78;6256807;22;38930;-77
2022/06/25 08:06:22;;;;;;;1.23;1.10;;;;;;;35.48;32.75;98800.94;6282518;22;42454;-79
2022/06/25 08:08:50;;;;;;;1.20;1.10;;;;;;;36.61;31.29;98808.06;6309582;22;42702;-78
2022/06/25 08:11:17;;;;;;;1.38;1.30;;;;;;;38.29;29.05;98814.28;6309773;22;43260;-78
2022/06/25 08:13:47;;;;;;;1.33;1.23;;;;;;;40.13;27.05;98825.28;6244377;22;39798;-77
2022/06/25 08:16:15;;;;;;;1.40;1.30;;;;;;;41.57;24.05;98829.16;6257714;22;41743;-76
2022/06/25 08:18:43;;;;;;;1.33;0.90;;;;;;;42.75;23.03;98832.59;6232037;22;41946;-75
2022/06/25 08:21:11;;;;;;;1.45;1.00;;;;;;;43.08;22.65;98836.16;6257548;22;40803;-75
2022/06/25 08:23:39;;;;;;;1.55;1.00;;;;;;;43.37;22.24;98835.88;6283205;22;40197;-76
2022/06/25 08:26:07;;;;;;;1.42;0.95;;;;;;;44.02;21.69;98822.44;6283453;22;42146;-79
2022/06/25 08:31:20;;;;;;;1.10;1.00;;;;;;;43.83;21.39;98816.19;6282722;22;42472;-76
2022/06/25 08:33:48;;;;;;;1.08;0.93;;;;;;;43.14;21.81;98812.63;6283381;22;39771;-77
2022/06/25 08:36:15;;;;;;;1.15;1.08;;;;;;;41.10;23.56;98813.28;6283881;22;41381;-77
2022/06/25 08:38:43;;;;;;;1.20;1.10;;;;;;;40.36;24.75;98787.66;6257900;22;41436;-77
2022/06/25 08:41:11;;;;;;;1.10;1.10;;;;;;;40.93;23.48;98807.41;6310127;22;42420;-77
2022/06/25 08:43:41;;;;;;;1.10;1.00;;;;;;;41.34;22.86;98797.44;6257443;22;39237;-78
2022/06/25 08:46:09;;;;;;;1.15;0.95;;;;;;;42.24;22.74;98805.63;6283211;22;40778;-76
2022/06/25 08:48:41;;;;;;;1.33;1.23;;;;;;;43.40;21.55;98806.56;6310599;22;42844;-77
2022/06/25 08:51:10;;;;;;;1.20;1.10;;;;;;;44.22;20.89;98784.00;6257828;22;40992;-76
2022/06/25 08:53:38;;;;;;;1.25;1.15;;;;;;;44.60;20.48;98803.97;6310390;22;39867;-76
2022/06/25 08:56:08;;;;;;;1.13;1.13;;;;;;;43.34;21.13;98805.81;6283662;22;40823;-75
2022/06/25 08:58:37;;;;;;;1.55;1.45;;;;;;;42.81;21.36;98803.53;6283121;22;43680;-76
2022/06/25 09:01:04;;;;;;;3.67;1.23;;;;;;;42.62;21.12;98803.59;6310218;22;42331;-76
2022/06/25 09:03:32;;;;;;;1.60;1.10;;;;;;;42.17;21.11;98796.81;6310176;22;39974;-75
2022/06/25 09:06:13;;;;;;;1.88;1.15;;;;;;;41.42;22.88;98782.06;6283498;22;41509;-76
2022/06/25 09:08:42;;;;;;;1.08;1.08;;;;;;;41.98;21.53;98784.06;6283417;22;44028;-75
2022/06/25 09:11:10;;;;;;;1.10;1.05;;;;;;;41.27;22.29;98774.78;6309939;22;42583;-75
2022/06/25 09:13:38;;;;;;;1.02;1.02;;;;;;;40.76;23.09;98775.34;6310454;22;40950;-75
2022/06/25 09:16:06;;;;;;;1.63;1.30;;;;;;;41.50;22.36;98773.06;6283380;22;42277;-76
2022/06/25 09:18:35;;;;;;;1.30;1.20;;;;;;;41.18;22.99;98777.34;6282930;22;42784;-75
2022/06/25 09:21:07;;;;;;;1.17;1.17;;;;;;;40.02;23.64;98771.00;6283139;22;42088;-75
2022/06/25 09:23:38;;;;;;;1.25;1.13;;;;;;;40.80;23.36;98776.41;6257435;22;39003;-76
2022/06/25 09:26:08;;;;;;;1.20;1.10;;;;;;;41.81;21.63;98784.56;6257071;22;41200;-77
2022/06/25 09:28:38;;;;;;;1.63;1.20;;;;;;;42.54;21.01;98783.94;6310608;22;44559;-76
2022/06/25 09:31:07;;;;;;;1.20;1.20;;;;;;;42.27;21.10;98776.34;6257961;22;42714;-76
2022/06/25 09:33:37;;;;;;;3.63;1.30;;;;;;;41.50;22.26;98771.09;6282877;22;41019;-76
2022/06/25 09:36:09;;;;;;;1.45;1.45;;;;;;;41.24;22.31;98753.13;6310529;22;42037;-76
2022/06/25 09:38:48;;;;;;;1.30;1.20;;;;;;;41.92;21.23;98763.81;6283335;22;43517;-76
2022/06/25 09:41:16;;;;;;;1.20;1.10;;;;;;;42.50;20.91;98769.00;6310808;22;43399;-77
2022/06/25 09:43:47;;;;;;;1.77;1.67;;;;;;;41.54;21.69;98766.63;6282717;22;40051;-76
2022/06/25 09:46:15;;;;;;;1.50;1.20;;;;;;;43.08;20.58;98768.44;6257785;22;41553;-76
2022/06/25 09:48:44;;;;;;;1.35;1.25;;;;;;;44.38;18.64;98785.28;6310085;22;42798;-76
2022/06/25 09:51:15;;;;;;;1.25;1.10;;;;;;;43.68;19.36;98778.28;6310797;22;42402;-77
2022/06/25 09:53:48;;;;;;;1.10;1.05;;;;;;;42.85;19.84;98776.69;6282893;22;40697;-76
2022/06/25 09:56:17;;;;;;;1.20;1.10;;;;;;;43.80;19.02;98768.53;6257526;22;42256;-77
2022/06/25 09:58:45;;;;;;;1.13;0.90;;;;;;;44.13;19.13;98772.78;6257127;22;42483;-77
2022/06/25 10:01:17;;;;;;;1.30;1.20;;;;;;;42.57;19.91;98736.00;6282945;22;42369;-77
2022/06/25 10:03:46;;;;;;;1.27;1.17;;;;;;;42.33;20.47;98747.28;6270589;22;40961;-76
2022/06/25 10:06:17;;;;;;;1.30;1.20;;;;;;;42.55;20.42;98764.16;6257581;22;40908;-77
2022/06/25 10:08:49;;;;;;;1.25;1.15;;;;;;;42.78;19.45;98762.34;6257528;22;41872;-76
2022/06/25 10:11:19;;;;;;;1.08;1.08;;;;;;;42.14;20.78;98755.69;6257153;22;42316;-77
2022/06/25 10:13:49;;;;;;;1.20;1.20;;;;;;;41.50;21.27;98734.97;6310206;22;40612;-77
2022/06/25 10:16:18;;;;;;;1.58;1.48;;;;;;;41.04;21.08;98745.84;6283006;22;42732;-77
2022/06/25 10:18:47;;;;;;;1.52;1.30;;;;;;;40.40;21.78;98749.06;6257653;22;41510;-77
2022/06/25 10:21:17;;;;;;;1.30;1.20;;;;;;;39.95;22.72;98734.44;6310546;22;42326;-77
2022/06/25 10:23:47;;;;;;;1.30;1.17;;;;;;;39.93;22.63;98730.31;6256995;22;40274;-77
2022/06/25 10:26:15;;;;;;;1.33;1.23;;;;;;;39.55;23.39;98715.31;6282698;22;40643;-76
2022/06/25 10:28:43;;;;;;;1.27;1.20;;;;;;;39.28;22.78;98715.75;6310038;22;43600;-76
2022/06/25 10:31:14;;;;;;;1.33;1.23;;;;;;;39.28;23.13;98727.66;6282848;22;43313;-77
2022/06/25 10:33:53;;;;;;;1.20;1.10;;;;;;;38.83;23.46;98730.59;6310078;22;40795;-77
2022/06/25 10:36:45;;;;;;;1.40;1.25;;;;;;;38.40;23.48;98727.38;6283273;22;41568;-76
2022/06/25 10:39:35;;;;;;;1.57;1.30;;;;;;;37.34;24.46;98723.41;6282638;22;41651;-76
2022/06/25 10:45:50;;;;;;;1.30;1.20;;;;;;;36.28;26.16;98707.16;6283032;22;41017;-77
2022/06/25 10:48:22;;;;;;;1.10;1.10;;;;;;;35.82;26.32;98705.16;6310009;22;41976;-76
2022/06/25 10:50:52;;;;;;;1.07;1.07;;;;;;;35.87;26.98;98694.97;6257396;22;43087;-76
2022/06/25 10:53:25;;;;;;;1.60;1.50;;;;;;;36.13;26.51;98686.91;6309757;22;42027;-76
2022/06/25 10:56:02;;;;;;;1.63;1.30;;;;;;;36.40;26.28;98689.56;6310994;22;42121;-77
2022/06/25 10:58:44;;;;;;;1.30;1.20;;;;;;;36.62;25.86;98684.72;6257287;22;40921;-76
2022/06/25 11:01:26;;;;;;;1.33;1.27;;;;;;;36.76;26.80;98668.53;6282833;22;43730;-77
2022/06/25 11:03:56;;;;;;;1.63;1.03;;;;;;;37.07;25.27;98681.34;6309705;22;42511;-76
2022/06/25 11:06:26;;;;;;;1.33;1.20;;;;;;;37.15;25.98;98671.69;6282894;22;40345;-77
2022/06/25 11:08:56;;;;;;;1.27;1.17;;;;;;;37.00;26.51;98675.25;6256867;22;41968;-77
2022/06/25 11:11:29;;;;;;;1.10;1.10;;;;;;;36.58;25.99;98673.41;6309786;22;43834;-76
2022/06/25 11:13:59;;;;;;;1.40;1.10;;;;;;;36.15;25.90;98677.25;6282676;22;42568;-76
2022/06/25 11:16:27;;;;;;;3.60;1.07;;;;;;;35.79;27.58;98664.31;6282660;22;41427;-76
2022/06/25 11:18:57;;;;;;;1.33;1.23;;;;;;;35.55;27.32;98661.91;6309559;22;41919;-76
2022/06/25 11:21:30;;;;;;;1.30;1.20;;;;;;;35.19;26.91;98655.19;6256857;22;42115;-75
2022/06/25 11:24:11;;;;;;;1.17;1.10;;;;;;;34.90;27.14;98662.03;6256478;22;41754;-76
2022/06/25 11:29:27;;;;;;;0.90;0.90;;;;;;;34.16;28.38;98656.03;6282581;22;42832;-76
2022/06/25 11:31:56;;;;;;;3.77;1.30;;;;;;;34.10;28.44;98646.09;6282388;22;41926;-76
2022/06/25 11:34:26;;;;;;;1.40;1.30;;;;;;;33.99;28.79;98638.78;6281923;22;43387;-76
2022/06/25 11:36:57;;;;;;;1.23;1.10;;;;;;;34.06;29.36;98636.66;6284089;22;20186;-75
2022/06/25 11:39:26;;;;;;;1.80;1.70;;;;;;;34.33;29.01;98632.13;6282227;22;41707;-76
2022/06/25 11:41:54;;;;;;;1.50;1.40;;;;;;;34.96;28.86;98639.00;6282572;22;44312;-76
2022/06/25 11:44:22;;;;;;;1.47;1.20;;;;;;;35.70;28.20;98650.19;6282138;22;42165;-77
2022/06/25 11:46:51;;;;;;;1.40;1.30;;;;;;;35.98;27.36;98652.59;6309890;22;41033;-78
2022/06/25 11:49:20;;;;;;;1.10;1.10;;;;;;;35.98;26.83;98652.59;6283058;22;41659;-76
2022/06/25 11:51:51;;;;;;;1.40;1.30;;;;;;;36.04;26.33;98644.38;6283705;22;43986;-76
2022/06/25 11:54:23;;;;;;;1.33;1.23;;;;;;;36.36;26.17;98658.94;6257467;22;42531;-76
2022/06/25 11:56:55;;;;;;;1.50;1.40;;;;;;;36.80;26.72;98647.59;6311485;22;39937;-76
2022/06/25 11:59:28;;;;;;;1.30;1.20;;;;;;;37.03;26.95;98638.81;6310927;22;42551;-77
2022/06/25 12:01:58;;;;;;;1.60;1.50;;;;;;;37.10;26.33;98647.66;6283627;22;42960;-76
2022/06/25 12:04:27;;;;;;;1.53;1.40;;;;;;;37.77;25.74;98630.09;6310620;22;42386;-77
2022/06/25 12:06:55;;;;;;;3.93;1.33;;;;;;;38.97;25.63;98627.25;6283748;22;40033;-77
2022/06/25 12:09:24;;;;;;;1.10;1.10;;;;;;;40.22;23.02;98670.09;6257026;22;41374;-76
2022/06/25 12:11:55;;;;;;;1.42;1.42;;;;;;;41.24;22.81;98661.41;6310941;22;43740;-77
2022/06/25 12:14:25;;;;;;;4.10;1.27;;;;;;;42.38;21.28;98660.09;6258636;22;41995;-77
2022/06/25 12:16:55;;;;;;;1.25;1.17;;;;;;;43.04;20.47;98675.41;6283905;22;39005;-77
2022/06/25 12:19:23;;;;;;;1.25;1.15;;;;;;;43.88;19.02;98675.72;6283735;22;42888;-78
2022/06/25 12:21:51;;;;;;;1.25;1.25;;;;;;;44.82;19.23;98680.16;6283741;22;41924;-77
2022/06/25 12:24:22;;;;;;;1.40;1.33;;;;;;;45.69;17.62;98662.34;6257468;22;41361;-77
2022/06/25 12:26:55;;;;;;;1.20;1.10;;;;;;;46.72;17.02;98683.69;6246763;22;40485;-78
2022/06/25 12:29:25;;;;;;;1.08;1.08;;;;;;;47.49;16.35;98685.16;6283675;22;40736;-77
2022/06/25 12:31:56;;;;;;;1.17;1.08;;;;;;;48.03;14.35;98696.41;6311014;22;42379;-78
2022/06/25 12:34:25;;;;;;;1.27;1.17;;;;;;;48.14;14.69;98694.84;6310387;22;43119;-77
2022/06/25 12:36:54;;;;;;;1.45;1.35;;;;;;;48.59;15.02;98684.38;6310976;22;41459;-77
2022/06/25 12:39:33;;;;;;;1.00;1.00;;;;;;;48.96;13.79;98695.66;6257711;22;42129;-77
2022/06/25 12:42:08;;;;;;;0.98;0.98;;;;;;;49.20;13.94;98684.41;6311490;22;43431;-77
2022/06/25 12:44:38;;;;;;;3.28;1.95;;;;;;;49.49;14.09;98668.34;6257481;22;41410;-77
2022/06/25 12:47:08;;;;;;;1.05;0.90;;;;;;;47.65;14.21;98677.75;6283593;22;39447;-78
2022/06/25 12:49:44;;;;;;;1.08;1.08;;;;;;;46.37;15.26;98666.16;6283958;22;42429;-77
2022/06/25 12:53:09;;;;;;;1.75;1.15;;;;;;;46.40;16.46;98660.72;6185690;22;42817;-77
2022/06/25 12:55:38;;;;;;;3.63;1.02;;;;;;;47.32;16.08;98658.06;6220773;22;42692;-77